New Market, AL (35761)

6:22 PM CST on December 03, 2016 (GMT -0600)
Cedar Gap Mtn | | Change Station

Elev 837 ft 34.88 °N, 86.40 °W | Updated 2 minutes ago

Light Rain
Light Rain
43.0 °F
Feels Like 43 °F
N
0.0
Wind Variable Wind from SSW
Gusts 0.0 mph

Today
High -- | Low -- °F
--% Chance of Precip.
Yesterday
High -- | Low -- °F
Precip. -- in
Pressure 30.23 in
Visibility 7.0 miles
Clouds Overcast 7500 ft
Windchill 43 °F
Dew Point 40 °F
Humidity 89%
Rainfall 0.07 in
Snow Depth Not available.
6:37 AM 4:34 PM
Waxing Crescent, 18% visible
METAR KMDQ 040015Z AUTO 00000KT 7SM -RA OVC075 06/03 A3023 RMK AO2
Pressure 30.23 in
Visibility 7.0 miles
Clouds Overcast 7500 ft
Windchill 43 °F
Dew Point 40 °F
Humidity 89%
Rainfall 0.07 in
Snow Depth Not available.
6:37 AM 4:34 PM
Waxing Crescent, 18% visible
METAR KMDQ 040015Z AUTO 00000KT 7SM -RA OVC075 06/03 A3023 RMK AO2

10-Day Weather Forecast

Almanac

Astronomy

Dec. 03, 2016 Rise Set
Actual Time
Civil Twilight
Nautical Twilight
Astronomical Twilight
Moon
Length of Visible Light
Length of Day
Tomorrow will be .
, % of the Moon is Illuminated

Today's Extremes

State Highs State Lows

Community

WunderPhotos

Upload Photos

1,955,538 photos uploaded!

WunderBlog® & News

Nearby

Air Quality

  Air Quality AQ Index Pollutant
Not available.

Snow Depth

Station Depth Elevation

Earthquake Activity

City Distance Mag. Time & Date
Minimum magnitude displayed is 2.5.

Coastal Water Temperatures

Place Temperature

Stations

Nearby Weather Stations

Station Location Temp. Windchill Dew Point Humidity Wind Precip. Elev Updated Type
                   

Watches & Warnings

There are currently no watches in effect.